Time;durP1;ratioP1;P1;durP2;ratioP2;P2;SDS_P1;SDS_P2;PMS_P1;PMS_P2;Temp;Humidity;BMP_temperature;BMP_pressure;BME280_temperature;BME280_humidity;BME280_pressure;Samples;Min_cycle;Max_cycle;Signal;HPM_P1;HPM_P2
2022/02/21 00:00:33;;;;;;;2.10;0.80;;;;;;;8.66;56.52;97845.29;231249;1228;138787;-63
2022/02/21 00:05:49;;;;;;;1.50;0.90;;;;;;;8.67;56.94;97826.61;231366;1229;138975;-62
2022/02/21 00:10:52;;;;;;;2.70;1.20;;;;;;;8.72;56.32;97818.98;231277;1229;138928;-60
2022/02/21 00:15:56;;;;;;;2.80;1.00;;;;;;;8.79;56.26;97809.13;231262;1229;139131;-58
2022/02/21 00:20:58;;;;;;;2.50;1.30;;;;;;;8.80;56.09;97797.89;231221;1229;138759;-58
2022/02/21 00:26:01;;;;;;;1.90;1.00;;;;;;;8.80;56.05;97785.67;231367;1228;138380;-59
2022/02/21 00:31:05;;;;;;;1.90;1.10;;;;;;;8.82;56.09;97777.55;231297;1228;138705;-59
2022/02/21 00:36:08;;;;;;;2.20;1.30;;;;;;;8.84;56.01;97768.11;231374;1228;140648;-59
2022/02/21 00:41:10;;;;;;;2.00;1.00;;;;;;;8.87;56.11;97750.53;231266;1229;139842;-60
2022/02/21 00:46:13;;;;;;;3.10;1.10;;;;;;;8.90;56.07;97738.75;231294;1228;140069;-59
2022/02/21 00:51:16;;;;;;;2.80;1.30;;;;;;;8.97;56.08;97730.61;231271;1229;139662;-59
2022/02/21 00:56:19;;;;;;;2.00;1.30;;;;;;;9.03;55.81;97723.60;231298;1229;139735;-58
2022/02/21 01:01:22;;;;;;;3.90;1.30;;;;;;;9.08;55.71;97717.21;231286;1229;138672;-57
2022/02/21 01:06:25;;;;;;;2.10;1.10;;;;;;;9.14;55.70;97698.89;231254;1229;138986;-59
2022/02/21 01:11:30;;;;;;;1.70;1.10;;;;;;;9.19;55.42;97694.06;231366;1228;138537;-61
2022/02/21 01:16:33;;;;;;;1.80;1.30;;;;;;;9.22;55.11;97683.94;231284;1229;138773;-62
2022/02/21 01:21:36;;;;;;;3.70;1.20;;;;;;;9.26;55.15;97674.92;231257;1230;139726;-60
2022/02/21 01:26:39;;;;;;;2.10;1.10;;;;;;;9.30;55.03;97662.22;231216;1229;138249;-62
2022/02/21 01:31:42;;;;;;;2.30;0.90;;;;;;;9.33;54.72;97644.13;231264;1229;138649;-60
2022/02/21 01:36:45;;;;;;;2.50;1.00;;;;;;;9.35;54.64;97630.55;231286;1229;138961;-62
2022/02/21 01:41:48;;;;;;;2.20;1.00;;;;;;;9.38;54.78;97621.66;231405;1230;137965;-61
2022/02/21 01:46:51;;;;;;;3.40;1.20;;;;;;;9.41;54.58;97607.40;231275;1230;138201;-62
2022/02/21 01:51:55;;;;;;;1.50;0.90;;;;;;;9.43;54.57;97590.97;231275;1229;138737;-62
2022/02/21 01:56:59;;;;;;;1.50;0.90;;;;;;;9.48;54.39;97581.48;231266;1229;138956;-61
2022/02/21 02:02:03;;;;;;;2.40;1.00;;;;;;;9.55;54.13;97573.50;231298;1230;139058;-60
2022/02/21 02:07:06;;;;;;;2.00;1.00;;;;;;;9.59;54.02;97563.46;231292;1228;138535;-61
2022/02/21 02:12:10;;;;;;;1.30;0.80;;;;;;;9.62;53.81;97552.23;231393;1230;139187;-61
2022/02/21 02:17:15;;;;;;;2.20;0.70;;;;;;;9.64;53.63;97536.30;231307;1228;138899;-61
2022/02/21 02:22:23;;;;;;;2.50;1.10;;;;;;;9.68;53.49;97528.38;231228;1229;138741;-61
2022/02/21 02:27:26;;;;;;;1.60;1.00;;;;;;;9.70;53.22;97516.80;231313;1230;139384;-62
2022/02/21 02:32:29;;;;;;;1.60;0.90;;;;;;;9.76;53.34;97515.46;231275;1230;138807;-61
2022/02/21 02:37:32;;;;;;;2.20;1.10;;;;;;;9.79;53.01;97512.98;231247;1229;138263;-61
2022/02/21 02:42:35;;;;;;;1.50;0.80;;;;;;;9.79;52.87;97513.60;231191;1230;138821;-62
2022/02/21 02:47:38;;;;;;;1.30;0.80;;;;;;;9.80;52.87;97510.35;231382;1229;138410;-62
2022/02/21 02:52:41;;;;;;;1.40;1.00;;;;;;;9.79;52.98;97507.41;231259;1230;140277;-63
2022/02/21 02:57:44;;;;;;;2.20;1.20;;;;;;;9.81;52.99;97499.43;231267;1229;138767;-60
2022/02/21 03:02:47;;;;;;;2.40;1.00;;;;;;;9.80;52.93;97497.45;231267;1229;138726;-61
2022/02/21 03:07:50;;;;;;;1.10;0.90;;;;;;;9.78;53.37;97486.23;231337;1228;139148;-61
2022/02/21 03:12:53;;;;;;;1.80;1.00;;;;;;;9.78;53.29;97482.20;231320;1228;138664;-62
2022/02/21 03:17:56;;;;;;;1.50;0.70;;;;;;;9.76;53.47;97472.77;231390;1230;140188;-63
2022/02/21 03:22:59;;;;;;;1.20;0.90;;;;;;;9.71;53.56;97478.35;231234;1230;139445;-63
2022/02/21 03:28:02;;;;;;;1.30;0.80;;;;;;;9.67;54.23;97474.62;231332;1230;138467;-62
2022/02/21 03:33:05;;;;;;;1.70;1.00;;;;;;;9.61;54.12;97480.73;231263;1228;139650;-61
2022/02/21 03:38:08;;;;;;;1.80;1.20;;;;;;;9.55;54.29;97474.55;231277;1230;140179;-63
2022/02/21 03:43:11;;;;;;;1.30;0.90;;;;;;;9.50;54.44;97457.42;231286;1230;138450;-62
2022/02/21 03:48:16;;;;;;;41.60;29.40;;;;;;;9.51;54.59;97446.23;231391;1229;138379;-60
2022/02/21 03:53:19;;;;;;;2.40;1.20;;;;;;;9.59;54.95;97444.83;231260;1228;139336;-61
2022/02/21 03:58:22;;;;;;;1.30;1.00;;;;;;;9.56;55.10;97435.48;231265;1230;138837;-62
2022/02/21 04:03:25;;;;;;;2.20;1.00;;;;;;;9.50;55.35;97418.67;231244;1229;138477;-61
2022/02/21 04:08:30;;;;;;;1.30;0.90;;;;;;;9.42;55.47;97399.66;231232;1229;139439;-60
2022/02/21 04:13:33;;;;;;;3.90;2.40;;;;;;;9.40;55.83;97395.42;231266;1230;139188;-61
2022/02/21 04:18:36;;;;;;;1.80;1.30;;;;;;;9.42;55.81;97400.54;231229;1230;139123;-58
2022/02/21 04:23:39;;;;;;;2.70;1.00;;;;;;;9.41;55.99;97387.41;231297;1230;138781;-60
2022/02/21 04:28:42;;;;;;;2.20;1.00;;;;;;;9.32;56.14;97372.54;231264;1229;139244;-63
2022/02/21 04:33:46;;;;;;;2.50;1.00;;;;;;;9.23;56.56;97356.11;231228;1230;139014;-63
2022/02/21 04:38:49;;;;;;;1.70;1.00;;;;;;;9.14;56.95;97341.19;231224;1229;138575;-61
2022/02/21 04:43:53;;;;;;;1.90;1.00;;;;;;;9.07;57.06;97336.77;231285;1228;138375;-60
2022/02/21 04:48:57;;;;;;;1.10;0.80;;;;;;;9.00;57.02;97310.96;231276;1230;138793;-61
2022/02/21 04:54:00;;;;;;;2.00;1.20;;;;;;;8.99;57.51;97312.64;231391;1228;138137;-61
2022/02/21 04:59:03;;;;;;;3.10;1.10;;;;;;;8.97;57.49;97304.34;231246;1229;139136;-62
2022/02/21 05:04:06;;;;;;;1.30;1.10;;;;;;;8.92;57.51;97278.94;231463;1230;138887;-65
2022/02/21 05:09:09;;;;;;;1.40;1.00;;;;;;;8.90;57.61;97259.80;231265;1229;139094;-63
2022/02/21 05:14:12;;;;;;;1.50;1.10;;;;;;;8.92;57.54;97244.26;231301;1229;139002;-63
2022/02/21 05:19:15;;;;;;;2.70;1.10;;;;;;;8.94;57.69;97233.00;231230;1228;138683;-62
2022/02/21 05:24:18;;;;;;;1.30;1.10;;;;;;;8.95;57.58;97218.20;231371;1230;138767;-62
2022/02/21 05:29:21;;;;;;;1.60;1.20;;;;;;;8.98;57.58;97206.65;231240;1229;138973;-63
2022/02/21 05:34:24;;;;;;;1.60;1.10;;;;;;;9.01;57.59;97193.33;231249;1229;139212;-62
2022/02/21 05:39:27;;;;;;;2.00;1.10;;;;;;;9.05;57.20;97179.84;231086;1229;139328;-62
2022/02/21 05:44:30;;;;;;;2.20;1.30;;;;;;;9.10;57.39;97188.81;231284;1230;138813;-63
2022/02/21 05:49:33;;;;;;;1.70;1.20;;;;;;;9.16;57.22;97194.99;231238;1229;139038;-65
2022/02/21 05:54:36;;;;;;;2.70;1.20;;;;;;;9.25;57.20;97193.70;231273;1229;138724;-64
2022/02/21 05:59:39;;;;;;;2.90;1.40;;;;;;;9.31;57.14;97199.23;231374;1229;140921;-65
2022/02/21 06:04:42;;;;;;;2.00;1.20;;;;;;;9.37;56.92;97199.43;231428;1229;138638;-63
2022/02/21 06:09:45;;;;;;;1.50;1.00;;;;;;;9.41;56.96;97200.06;231225;1229;139176;-63
2022/02/21 06:14:48;;;;;;;2.30;1.10;;;;;;;9.48;56.53;97190.30;231261;1229;138907;-64
2022/02/21 06:19:51;;;;;;;1.40;0.90;;;;;;;9.53;56.92;97199.05;231206;1229;140618;-63
2022/02/21 06:24:54;;;;;;;2.30;1.20;;;;;;;9.58;56.97;97193.69;231188;1229;139496;-64
2022/02/21 06:29:57;;;;;;;3.10;1.10;;;;;;;9.61;57.06;97185.83;231322;1228;139121;-65
2022/02/21 06:35:01;;;;;;;2.60;1.30;;;;;;;9.63;56.98;97190.58;231334;1229;138712;-65
2022/02/21 06:40:05;;;;;;;1.80;1.10;;;;;;;9.65;57.41;97184.89;231223;1229;139645;-63
2022/02/21 06:45:08;;;;;;;2.20;1.10;;;;;;;9.69;57.14;97182.25;231274;1229;138681;-65
2022/02/21 06:50:11;;;;;;;2.40;1.20;;;;;;;9.73;57.19;97187.23;231210;1229;139847;-65
2022/02/21 06:55:15;;;;;;;1.80;1.20;;;;;;;9.75;57.14;97186.03;231244;1229;138823;-64
2022/02/21 07:00:18;;;;;;;1.40;1.10;;;;;;;9.74;57.22;97195.45;231350;1229;139019;-63
2022/02/21 07:05:21;;;;;;;3.00;1.10;;;;;;;9.75;57.38;97199.64;231397;1228;138797;-65
2022/02/21 07:10:24;;;;;;;2.40;1.10;;;;;;;9.73;57.50;97201.23;231216;1228;138635;-63
2022/02/21 07:15:27;;;;;;;3.40;1.20;;;;;;;9.63;57.69;97209.48;231277;1229;139032;-64
2022/02/21 07:20:30;;;;;;;2.80;1.60;;;;;;;9.57;57.69;97207.05;231311;1229;138591;-64
2022/02/21 07:25:33;;;;;;;1.60;1.10;;;;;;;9.52;57.86;97219.89;231257;1229;139411;-65
2022/02/21 07:30:36;;;;;;;4.50;1.30;;;;;;;9.45;58.26;97223.33;231213;1228;139186;-65
2022/02/21 07:35:39;;;;;;;3.20;1.10;;;;;;;9.43;58.28;97221.70;231364;1229;140164;-67
2022/02/21 07:40:42;;;;;;;2.20;1.40;;;;;;;9.46;58.38;97217.73;231213;1229;139414;-66
2022/02/21 07:45:45;;;;;;;2.10;1.30;;;;;;;9.43;58.24;97213.52;231365;1228;138390;-63
2022/02/21 07:50:48;;;;;;;2.70;1.30;;;;;;;9.39;58.69;97211.29;231284;1229;138886;-64
2022/02/21 07:55:52;;;;;;;2.30;1.50;;;;;;;9.32;58.66;97203.23;231253;1229;138996;-63
2022/02/21 08:00:55;;;;;;;3.20;1.20;;;;;;;9.30;58.98;97189.80;231142;1229;140597;-64
2022/02/21 08:06:00;;;;;;;2.60;1.30;;;;;;;9.28;59.12;97174.20;231525;1229;138619;-64
2022/02/21 08:11:03;;;;;;;3.30;1.20;;;;;;;9.25;59.40;97171.94;231208;1229;139302;-65
2022/02/21 08:16:07;;;;;;;3.20;1.20;;;;;;;9.23;59.53;97163.96;231194;1228;138893;-60
2022/02/21 08:21:10;;;;;;;3.10;1.00;;;;;;;9.28;59.30;97156.86;231216;1228;139605;-60
2022/02/21 08:26:13;;;;;;;1.80;1.00;;;;;;;9.33;59.40;97161.36;231217;1228;139129;-61
2022/02/21 08:31:16;;;;;;;39.40;25.40;;;;;;;9.38;59.82;97161.08;231144;1229;139516;-60
2022/02/21 08:36:20;;;;;;;4.30;2.70;;;;;;;9.46;59.80;97153.46;231373;1228;138937;-62
2022/02/21 08:41:23;;;;;;;1.90;1.30;;;;;;;9.51;59.62;97140.81;231188;1228;138973;-61
2022/02/21 08:46:26;;;;;;;2.90;1.40;;;;;;;9.55;59.62;97141.75;231241;1228;138687;-60
2022/02/21 08:51:38;;;;;;;2.50;1.20;;;;;;;9.59;59.62;97134.46;231130;1229;138487;-62
2022/02/21 08:56:41;;;;;;;2.50;1.30;;;;;;;9.62;59.47;97124.64;231205;1229;139084;-62
2022/02/21 09:01:47;;;;;;;1.80;1.20;;;;;;;9.65;59.26;97108.95;231274;1228;139348;-61
2022/02/21 09:07:07;;;;;;;2.00;1.00;;;;;;;9.71;59.30;97107.34;231229;1228;140929;-61
2022/02/21 09:12:10;;;;;;;2.40;1.30;;;;;;;9.78;59.44;97100.33;231235;1228;138348;-62
2022/02/21 09:17:14;;;;;;;1.40;1.10;;;;;;;9.83;59.03;97092.98;231232;1229;138782;-60
2022/02/21 09:22:17;;;;;;;1.30;0.90;;;;;;;9.87;58.97;97095.34;231136;1228;138453;-62
2022/02/21 09:27:20;;;;;;;1.80;1.00;;;;;;;9.91;59.08;97080.92;231250;1228;138654;-63
2022/02/21 09:32:23;;;;;;;1.00;0.70;;;;;;;9.94;58.83;97074.06;231170;1229;140831;-63
2022/02/21 09:37:27;;;;;;;2.00;0.80;;;;;;;9.94;58.80;97074.09;231249;1228;138657;-66
2022/02/21 09:42:30;;;;;;;1.00;0.80;;;;;;;9.98;58.66;97069.64;231203;1229;139203;-63
2022/02/21 09:47:34;;;;;;;1.00;0.70;;;;;;;10.01;58.39;97063.95;231349;1228;139598;-63
2022/02/21 09:53:01;;;;;;;1.10;0.80;;;;;;;9.98;58.36;97066.34;231176;1229;139684;-63
2022/02/21 09:58:04;;;;;;;1.20;0.90;;;;;;;9.98;58.45;97077.11;231213;1228;141955;-62
2022/02/21 10:03:07;;;;;;;1.60;1.00;;;;;;;10.04;58.37;97073.20;231318;1228;140899;-61
2022/02/21 10:08:15;;;;;;;118.80;71.00;;;;;;;10.10;58.13;97073.86;231291;1228;139146;-63
2022/02/21 10:13:18;;;;;;;4.40;2.70;;;;;;;10.20;58.05;97072.64;231138;1229;140376;-63
2022/02/21 10:18:24;;;;;;;2.00;1.00;;;;;;;10.26;57.84;97068.05;231342;1228;140703;-61
2022/02/21 10:23:34;;;;;;;1.10;0.90;;;;;;;10.28;57.75;97065.57;231193;1228;139850;-62
2022/02/21 10:28:38;;;;;;;1.90;1.10;;;;;;;10.30;57.61;97067.77;231183;1228;138964;-61
2022/02/21 10:34:03;;;;;;;1.60;1.00;;;;;;;10.33;57.29;97071.05;231218;1228;139067;-61
2022/02/21 10:39:10;;;;;;;4.30;1.20;;;;;;;10.34;57.03;97077.23;231239;1228;138816;-61
2022/02/21 10:44:24;;;;;;;5.40;1.00;;;;;;;10.33;57.12;97082.05;231218;1228;139732;-61
2022/02/21 10:49:27;;;;;;;3.70;1.00;;;;;;;10.33;56.75;97085.63;231219;1228;138932;-63
2022/02/21 10:54:35;;;;;;;2.00;1.10;;;;;;;10.32;56.75;97086.58;231571;1228;138433;-61
2022/02/21 10:59:39;;;;;;;3.90;1.20;;;;;;;10.33;56.72;97095.23;231818;1227;139553;-59
2022/02/21 11:04:43;;;;;;;2.20;1.10;;;;;;;10.34;56.77;97112.96;231711;1228;139767;-59
2022/02/21 11:09:48;;;;;;;2.80;1.20;;;;;;;10.34;56.77;97137.96;231784;1228;138820;-59
2022/02/21 11:14:51;;;;;;;2.80;0.60;;;;;;;10.25;56.65;97214.46;231763;1228;139140;-59
2022/02/21 11:19:54;;;;;;;2.10;0.70;;;;;;;9.86;56.79;97212.29;231826;1228;138839;-60
2022/02/21 11:25:28;;;;;;;0.70;0.40;;;;;;;9.51;56.75;97203.83;231787;1227;139604;-60
2022/02/21 11:30:32;;;;;;;0.60;0.40;;;;;;;9.24;56.86;97211.71;231302;1228;138802;-60
2022/02/21 11:35:39;;;;;;;0.70;0.60;;;;;;;9.02;56.74;97238.50;231308;1228;138809;-60
2022/02/21 11:40:59;;;;;;;2.30;0.60;;;;;;;8.70;56.68;97259.25;231191;1228;139643;-59
2022/02/21 11:46:07;;;;;;;1.40;0.70;;;;;;;8.37;57.19;97252.40;231271;1228;138501;-61
2022/02/21 11:51:30;;;;;;;1.80;0.80;;;;;;;8.07;57.88;97261.70;231213;1227;139761;-60
2022/02/21 11:56:52;;;;;;;2.70;1.20;;;;;;;7.82;58.80;97267.03;231108;1227;138503;-60
2022/02/21 12:02:17;;;;;;;2.90;1.30;;;;;;;7.71;59.59;97250.45;231298;1228;141585;-59
2022/02/21 12:07:31;;;;;;;1.90;1.10;;;;;;;7.70;60.52;97246.13;231194;1228;139344;-58
2022/02/21 12:12:55;;;;;;;3.90;1.30;;;;;;;7.69;60.95;97247.23;231174;1229;138854;-60
2022/02/21 12:18:07;;;;;;;2.90;1.50;;;;;;;7.74;61.14;97277.92;231243;1228;139145;-59
2022/02/21 12:23:14;;;;;;;1.60;0.90;;;;;;;7.82;61.82;97286.08;231198;1228;139295;-60
2022/02/21 12:28:21;;;;;;;4.00;1.70;;;;;;;7.93;61.96;97310.63;231111;1228;139812;-59
2022/02/21 12:33:36;;;;;;;4.20;1.80;;;;;;;8.06;62.23;97321.30;231145;1228;140051;-58
2022/02/21 12:38:42;;;;;;;2.70;1.50;;;;;;;8.17;62.48;97320.23;231112;1228;139632;-58
2022/02/21 12:43:50;;;;;;;4.60;2.20;;;;;;;8.32;62.36;97321.35;231223;1228;139677;-59
2022/02/21 12:48:53;;;;;;;3.50;2.00;;;;;;;8.41;62.18;97323.31;231120;1228;139404;-59
2022/02/21 12:54:05;;;;;;;4.40;1.90;;;;;;;8.42;62.18;97324.24;231269;1228;138696;-58
2022/02/21 12:59:12;;;;;;;;;;;;;;;8.45;61.97;97339.58;231080;1228;138830;-60
2022/02/21 13:04:18;;;;;;;7.40;2.50;;;;;;;8.46;61.84;97347.98;231288;1228;125450;-58
2022/02/21 13:09:21;;;;;;;6.40;3.20;;;;;;;8.53;61.29;97365.05;231190;1228;139195;-60
2022/02/21 13:14:30;;;;;;;4.20;2.50;;;;;;;8.56;61.05;97351.77;231150;1228;138962;-58
2022/02/21 13:19:40;;;;;;;5.00;2.80;;;;;;;8.56;60.67;97367.72;231163;1228;140150;-57
2022/02/21 13:24:46;;;;;;;6.80;2.50;;;;;;;8.57;60.45;97371.45;231166;1229;139666;-58
2022/02/21 13:29:51;;;;;;;3.90;2.00;;;;;;;8.58;59.77;97402.89;231203;1227;139407;-57
2022/02/21 13:35:09;;;;;;;5.50;2.10;;;;;;;8.57;59.17;97390.70;231183;1228;140598;-56
2022/02/21 13:40:12;;;;;;;4.00;2.10;;;;;;;8.58;58.80;97387.81;231153;1228;139887;-56
2022/02/21 13:45:16;;;;;;;3.20;1.60;;;;;;;8.62;58.28;97395.86;231176;1229;138476;-56
2022/02/21 13:50:34;;;;;;;5.70;2.20;;;;;;;8.64;57.74;97395.45;231182;1228;138923;-56
2022/02/21 13:55:40;;;;;;;6.30;2.20;;;;;;;8.62;57.62;97400.42;231244;1228;139691;-59
2022/02/21 14:00:46;;;;;;;3.90;2.40;;;;;;;8.55;57.13;97446.08;231256;1229;138571;-57
2022/02/21 14:06:06;;;;;;;5.00;2.50;;;;;;;8.32;57.31;97499.74;231399;1228;139444;-58
2022/02/21 14:11:12;;;;;;;4.40;2.40;;;;;;;7.77;57.32;97514.07;231255;1228;140483;-57
2022/02/21 14:16:16;;;;;;;2.90;1.40;;;;;;;7.28;58.13;97511.29;231213;1229;139210;-59
2022/02/21 14:21:19;;;;;;;3.20;1.40;;;;;;;6.85;58.51;97507.37;231260;1229;139209;-58
2022/02/21 14:26:24;;;;;;;2.30;1.40;;;;;;;6.59;59.12;97488.97;231252;1228;139613;-59
2022/02/21 14:31:27;;;;;;;4.80;1.80;;;;;;;6.47;59.68;97485.61;231233;1228;139582;-58
2022/02/21 14:36:34;;;;;;;4.00;2.00;;;;;;;6.40;60.30;97495.05;231328;1228;139630;-58
2022/02/21 14:41:37;;;;;;;4.80;2.20;;;;;;;6.34;60.47;97482.11;231209;1229;139199;-59
2022/02/21 14:46:40;;;;;;;4.10;2.20;;;;;;;6.28;60.68;97476.20;231236;1229;138761;-57
2022/02/21 14:51:44;;;;;;;4.10;2.30;;;;;;;6.35;61.20;97483.40;231210;1228;138816;-63
2022/02/21 14:56:48;;;;;;;6.30;2.40;;;;;;;6.46;61.30;97480.75;231245;1229;139876;-58
2022/02/21 15:01:51;;;;;;;3.80;2.40;;;;;;;6.54;61.35;97490.05;231225;1229;139031;-63
2022/02/21 15:06:54;;;;;;;3.50;2.00;;;;;;;6.59;61.07;97502.52;231210;1229;139890;-62
2022/02/21 15:11:58;;;;;;;6.00;2.80;;;;;;;6.66;60.87;97492.52;231344;1230;138944;-62
2022/02/21 15:17:02;;;;;;;9.50;4.30;;;;;;;6.78;62.64;97489.07;231197;1228;139516;-63
2022/02/21 15:22:06;;;;;;;5.90;2.50;;;;;;;8.62;66.84;97479.27;231201;1228;138917;-59
2022/02/21 15:27:09;;;;;;;5.80;2.50;;;;;;;8.65;60.80;97472.85;231267;1229;139232;-61
2022/02/21 15:32:12;;;;;;;5.30;3.10;;;;;;;8.25;59.49;97469.79;231277;1230;140034;-61
2022/02/21 15:37:15;;;;;;;6.90;2.70;;;;;;;7.91;59.12;97465.86;231244;1230;138875;-61
2022/02/21 15:42:19;;;;;;;5.30;3.00;;;;;;;7.64;59.34;97479.70;231276;1229;138943;-61
2022/02/21 15:47:24;;;;;;;5.50;2.90;;;;;;;7.46;59.41;97480.21;231274;1228;140096;-63
2022/02/21 15:52:27;;;;;;;4.20;2.20;;;;;;;7.31;59.36;97475.10;231243;1228;141780;-61
2022/02/21 15:57:30;;;;;;;5.30;2.70;;;;;;;7.16;58.72;97465.84;231178;1229;139637;-62
2022/02/21 16:02:33;;;;;;;3.40;2.40;;;;;;;7.00;59.09;97486.41;231231;1230;138886;-64
2022/02/21 16:07:36;;;;;;;5.60;2.90;;;;;;;6.96;59.41;97484.94;231249;1229;140206;-61
2022/02/21 16:12:40;;;;;;;5.20;2.80;;;;;;;6.95;59.27;97483.77;231360;1228;138590;-62
2022/02/21 16:17:43;;;;;;;9.50;5.60;;;;;;;6.95;59.48;97483.76;231245;1228;139540;-61
2022/02/21 16:22:48;;;;;;;6.30;3.70;;;;;;;6.94;59.26;97487.38;231186;1229;138683;-62
2022/02/21 16:27:51;;;;;;;7.80;3.50;;;;;;;6.90;59.04;97489.74;231230;1229;140607;-63
2022/02/21 16:32:54;;;;;;;7.00;3.20;;;;;;;6.86;58.98;97483.33;231181;1229;138617;-62
2022/02/21 16:37:57;;;;;;;7.90;4.00;;;;;;;6.83;58.88;97487.27;231158;1229;138934;-58
2022/02/21 16:43:00;;;;;;;6.00;3.60;;;;;;;6.81;58.78;97497.13;231149;1229;138463;-61
2022/02/21 16:48:05;;;;;;;6.40;4.00;;;;;;;6.81;58.53;97504.17;231295;1230;139131;-61
2022/02/21 16:53:08;;;;;;;154.70;88.30;;;;;;;6.78;58.73;97506.44;231156;1228;139131;-61
2022/02/21 16:58:11;;;;;;;16.70;8.30;;;;;;;6.82;58.37;97513.21;231153;1229;140761;-61
2022/02/21 17:03:14;;;;;;;8.10;4.10;;;;;;;6.86;57.69;97518.92;231159;1229;139917;-61
2022/02/21 17:08:17;;;;;;;6.90;3.80;;;;;;;6.88;57.13;97531.67;231103;1228;138570;-61
2022/02/21 17:13:21;;;;;;;6.10;3.40;;;;;;;6.92;56.51;97524.38;231091;1228;140875;-64
2022/02/21 17:18:24;;;;;;;8.40;3.00;;;;;;;6.95;56.11;97523.94;231328;1229;139009;-62
2022/02/21 17:23:28;;;;;;;5.50;2.60;;;;;;;6.96;55.29;97529.67;231164;1230;139127;-61
2022/02/21 17:28:31;;;;;;;4.40;2.00;;;;;;;6.97;54.93;97525.78;231325;1227;139062;-62
2022/02/21 17:33:36;;;;;;;6.00;2.50;;;;;;;7.01;54.49;97525.27;231149;1229;138770;-61
2022/02/21 17:38:39;;;;;;;6.10;2.80;;;;;;;7.01;53.92;97528.45;231168;1229;141078;-62
2022/02/21 17:43:42;;;;;;;6.30;2.70;;;;;;;7.00;54.02;97523.59;231167;1230;142159;-61
2022/02/21 17:48:45;;;;;;;5.10;2.50;;;;;;;6.99;53.27;97533.73;231173;1230;139978;-59
2022/02/21 17:53:48;;;;;;;10.50;3.20;;;;;;;6.97;53.38;97535.08;231270;1230;139601;-62
2022/02/21 17:58:51;;;;;;;7.00;3.20;;;;;;;6.94;53.14;97534.44;231134;1230;138395;-62
2022/02/21 18:03:56;;;;;;;9.80;3.50;;;;;;;6.90;52.87;97541.09;231157;1230;139508;-61
2022/02/21 18:09:00;;;;;;;;;;;;;;;6.88;52.66;97540.33;231230;1229;138517;-62
2022/02/21 18:14:03;;;;;;;9.90;3.50;;;;;;;6.81;52.33;97541.48;231184;1229;126323;-62
2022/02/21 18:19:06;;;;;;;7.40;3.60;;;;;;;6.76;52.42;97543.42;231241;1229;138547;-60
2022/02/21 18:24:09;;;;;;;10.60;3.70;;;;;;;6.76;52.42;97546.80;231373;1229;138676;-61
2022/02/21 18:29:14;;;;;;;10.80;3.90;;;;;;;6.79;52.18;97541.52;231102;1229;139212;-62
2022/02/21 18:34:17;;;;;;;11.10;4.30;;;;;;;6.77;51.76;97539.35;231077;1229;138763;-58
2022/02/21 18:39:20;;;;;;;8.80;4.10;;;;;;;6.72;51.42;97537.90;231229;1229;139258;-62
2022/02/21 18:44:24;;;;;;;11.60;4.10;;;;;;;6.71;51.47;97542.95;231214;1228;141859;-61
2022/02/21 18:49:28;;;;;;;10.10;3.90;;;;;;;6.70;51.40;97543.39;231230;1229;138545;-63
2022/02/21 18:54:31;;;;;;;11.60;4.70;;;;;;;6.68;51.48;97550.91;231304;1229;140617;-63
2022/02/21 18:59:34;;;;;;;13.90;4.90;;;;;;;6.64;51.30;97552.39;231141;1230;139375;-60
2022/02/21 19:04:37;;;;;;;18.30;4.70;;;;;;;6.61;51.13;97556.11;231105;1229;139638;-62
2022/02/21 19:09:40;;;;;;;14.30;5.00;;;;;;;6.57;51.13;97560.69;231153;1229;139224;-60
2022/02/21 19:14:43;;;;;;;20.00;9.20;;;;;;;6.56;51.76;97558.94;231149;1229;139981;-63
2022/02/21 19:19:46;;;;;;;15.10;5.80;;;;;;;6.54;51.71;97555.05;231190;1229;139754;-63
2022/02/21 19:24:49;;;;;;;15.20;6.00;;;;;;;6.37;51.88;97550.56;231118;1229;139207;-63
2022/02/21 19:29:52;;;;;;;20.70;5.90;;;;;;;6.18;51.83;97555.22;231349;1230;139037;-62
2022/02/21 19:34:57;;;;;;;16.20;4.30;;;;;;;6.04;52.03;97552.48;231161;1230;139814;-62
2022/02/21 19:40:00;;;;;;;26.90;7.10;;;;;;;5.89;52.30;97558.02;231164;1229;139637;-63
2022/02/21 19:45:05;;;;;;;30.40;11.20;;;;;;;5.74;52.30;97552.20;231223;1229;139092;-62
2022/02/21 19:50:09;;;;;;;43.30;16.60;;;;;;;5.72;53.41;97554.74;231208;1229;139288;-63
2022/02/21 19:55:12;;;;;;;16.00;7.10;;;;;;;5.85;53.03;97557.10;231182;1229;141598;-62
2022/02/21 20:00:16;;;;;;;14.50;5.70;;;;;;;5.78;52.33;97555.11;231314;1229;139598;-62
2022/02/21 20:05:19;;;;;;;18.50;6.70;;;;;;;5.70;52.26;97553.48;231186;1229;138428;-62
2022/02/21 20:10:23;;;;;;;27.90;11.20;;;;;;;5.72;52.26;97548.14;231172;1229;141380;-63
2022/02/21 20:15:26;;;;;;;16.70;7.40;;;;;;;5.77;52.10;97543.35;231146;1229;138991;-63
2022/02/21 20:20:29;;;;;;;17.40;7.30;;;;;;;5.81;52.11;97546.98;231187;1230;139968;-61
2022/02/21 20:25:32;;;;;;;25.90;7.60;;;;;;;5.81;51.88;97546.23;231206;1229;139187;-65
2022/02/21 20:30:35;;;;;;;22.50;8.10;;;;;;;5.81;52.16;97549.45;231320;1229;138838;-60
2022/02/21 20:35:38;;;;;;;14.30;6.40;;;;;;;5.73;52.25;97558.23;231067;1229;138931;-60
2022/02/21 20:40:42;;;;;;;15.00;5.70;;;;;;;5.72;52.30;97558.31;231194;1229;138646;-61
2022/02/21 20:45:45;;;;;;;12.90;5.90;;;;;;;5.75;52.25;97561.23;231203;1230;139273;-62
2022/02/21 20:50:48;;;;;;;17.50;5.50;;;;;;;5.76;52.18;97564.54;231207;1228;139279;-65
2022/02/21 20:55:52;;;;;;;12.60;5.50;;;;;;;5.74;52.07;97563.48;231199;1228;139285;-64
2022/02/21 21:00:55;;;;;;;12.00;5.80;;;;;;;5.70;51.93;97562.80;231193;1229;139358;-65
2022/02/21 21:06:05;;;;;;;9.60;5.10;;;;;;;5.66;52.12;97560.47;231365;1228;139449;-64
2022/02/21 21:11:08;;;;;;;12.50;5.30;;;;;;;5.64;51.94;97559.67;231225;1229;138412;-63
2022/02/21 21:16:11;;;;;;;12.50;4.90;;;;;;;5.62;52.12;97562.83;231214;1229;138861;-64
2022/02/21 21:21:14;;;;;;;15.30;5.60;;;;;;;5.62;52.12;97569.83;231236;1230;139860;-63
2022/02/21 21:26:17;;;;;;;14.10;5.70;;;;;;;5.67;52.20;97563.74;231204;1228;139001;-63
2022/02/21 21:31:20;;;;;;;11.20;5.00;;;;;;;5.71;52.21;97561.38;231195;1229;138903;-63
2022/02/21 21:36:25;;;;;;;12.80;5.60;;;;;;;5.73;51.94;97562.83;231318;1229;140105;-63
2022/02/21 21:41:29;;;;;;;12.80;5.20;;;;;;;5.74;52.16;97568.88;231153;1229;139968;-62
2022/02/21 21:46:32;;;;;;;14.20;5.80;;;;;;;5.76;51.78;97569.77;231157;1229;139107;-63
2022/02/21 21:51:35;;;;;;;13.80;5.80;;;;;;;5.77;51.75;97565.57;231214;1229;139136;-62
2022/02/21 21:56:38;;;;;;;10.60;4.90;;;;;;;5.78;51.69;97565.66;231080;1230;139295;-62
2022/02/21 22:01:41;;;;;;;11.20;5.10;;;;;;;5.79;51.82;97561.35;231166;1229;139153;-60
2022/02/21 22:06:44;;;;;;;12.00;5.40;;;;;;;5.73;51.96;97559.77;231269;1229;138757;-61
2022/02/21 22:11:47;;;;;;;10.90;5.20;;;;;;;5.60;52.00;97554.49;231199;1229;138813;-62
2022/02/21 22:16:50;;;;;;;13.40;5.70;;;;;;;5.46;52.22;97559.98;231174;1229;139162;-64
2022/02/21 22:21:53;;;;;;;16.00;5.90;;;;;;;5.34;52.30;97562.36;231244;1229;139017;-64
2022/02/21 22:26:56;;;;;;;16.90;5.70;;;;;;;5.22;52.43;97566.85;231174;1228;138599;-58
2022/02/21 22:31:59;;;;;;;19.90;6.30;;;;;;;5.08;52.52;97571.98;231272;1229;139919;-60
2022/02/21 22:37:03;;;;;;;15.70;5.90;;;;;;;4.94;52.64;97575.98;231191;1228;139470;-63
2022/02/21 22:42:06;;;;;;;27.30;6.70;;;;;;;4.86;52.87;97571.20;231353;1228;138862;-63
2022/02/21 22:47:09;;;;;;;23.40;6.20;;;;;;;4.77;53.18;97571.27;231254;1229;139216;-63
2022/02/21 22:52:12;;;;;;;16.10;6.70;;;;;;;4.65;53.29;97574.65;231271;1229;140345;-63
2022/02/21 22:57:15;;;;;;;21.00;6.80;;;;;;;4.56;53.53;97576.77;231201;1228;138999;-64
2022/02/21 23:02:18;;;;;;;16.70;6.00;;;;;;;4.49;53.55;97579.45;231332;1228;138796;-64
2022/02/21 23:12:43;;;;;;;21.60;5.80;;;;;;;4.33;53.93;97584.64;231328;1229;138554;-62
2022/02/21 23:17:48;;;;;;;16.20;4.50;;;;;;;4.27;54.17;97591.34;231216;1229;138919;-63
2022/02/21 23:22:51;;;;;;;13.70;4.40;;;;;;;4.21;54.16;97590.13;231246;1229;138767;-62
2022/02/21 23:27:54;;;;;;;11.20;4.10;;;;;;;4.18;54.07;97585.77;231189;1228;139425;-62
2022/02/21 23:32:57;;;;;;;13.00;4.70;;;;;;;4.21;54.42;97589.95;231228;1229;138711;-62
2022/02/21 23:38:00;;;;;;;12.20;4.40;;;;;;;4.25;54.75;97590.07;231230;1228;139402;-61